sensor_id;sensor_type;location;lat;lon;timestamp;P1;durP1;ratioP1;P2;durP2;ratioP2
59167;SDS011;70412;55.048;73.268;2023-11-21T00:01:40;70.00;;;23.65;;
59167;SDS011;70412;55.048;73.268;2023-11-21T00:04:43;73.35;;;25.08;;
59167;SDS011;70412;55.048;73.268;2023-11-21T00:07:45;80.70;;;27.77;;
59167;SDS011;70412;55.048;73.268;2023-11-21T00:10:48;72.93;;;25.42;;
59167;SDS011;70412;55.048;73.268;2023-11-21T00:13:51;77.40;;;25.65;;
59167;SDS011;70412;55.048;73.268;2023-11-21T00:16:54;73.20;;;25.02;;
59167;SDS011;70412;55.048;73.268;2023-11-21T00:19:57;73.05;;;25.88;;
59167;SDS011;70412;55.048;73.268;2023-11-21T00:23:00;72.80;;;25.48;;
59167;SDS011;70412;55.048;73.268;2023-11-21T00:26:04;76.40;;;24.30;;
59167;SDS011;70412;55.048;73.268;2023-11-21T00:29:06;72.68;;;25.02;;
59167;SDS011;70412;55.048;73.268;2023-11-21T00:32:10;76.38;;;25.02;;
59167;SDS011;70412;55.048;73.268;2023-11-21T00:35:12;68.55;;;23.77;;
59167;SDS011;70412;55.048;73.268;2023-11-21T00:38:15;77.10;;;24.50;;
59167;SDS011;70412;55.048;73.268;2023-11-21T00:44:23;82.25;;;24.60;;
59167;SDS011;70412;55.048;73.268;2023-11-21T00:47:25;82.65;;;24.63;;
59167;SDS011;70412;55.048;73.268;2023-11-21T00:50:28;82.90;;;25.65;;
59167;SDS011;70412;55.048;73.268;2023-11-21T00:53:31;82.72;;;25.88;;
59167;SDS011;70412;55.048;73.268;2023-11-21T00:56:34;81.38;;;25.33;;
59167;SDS011;70412;55.048;73.268;2023-11-21T00:59:36;81.30;;;26.27;;
59167;SDS011;70412;55.048;73.268;2023-11-21T01:02:39;79.80;;;25.23;;
59167;SDS011;70412;55.048;73.268;2023-11-21T01:05:41;85.72;;;28.00;;
59167;SDS011;70412;55.048;73.268;2023-11-21T01:08:43;88.50;;;29.00;;
59167;SDS011;70412;55.048;73.268;2023-11-21T01:11:46;90.28;;;27.58;;
59167;SDS011;70412;55.048;73.268;2023-11-21T01:14:50;82.30;;;28.27;;
59167;SDS011;70412;55.048;73.268;2023-11-21T01:17:53;75.15;;;26.17;;
59167;SDS011;70412;55.048;73.268;2023-11-21T01:20:58;91.60;;;28.40;;
59167;SDS011;70412;55.048;73.268;2023-11-21T01:24:02;93.43;;;28.75;;
59167;SDS011;70412;55.048;73.268;2023-11-21T01:27:04;92.07;;;27.80;;
59167;SDS011;70412;55.048;73.268;2023-11-21T01:30:07;85.53;;;27.73;;
59167;SDS011;70412;55.048;73.268;2023-11-21T01:33:11;95.30;;;27.90;;
59167;SDS011;70412;55.048;73.268;2023-11-21T01:36:14;80.85;;;27.05;;
59167;SDS011;70412;55.048;73.268;2023-11-21T01:39:19;81.69;;;27.13;;
59167;SDS011;70412;55.048;73.268;2023-11-21T01:42:25;70.53;;;25.80;;
59167;SDS011;70412;55.048;73.268;2023-11-21T01:45:30;89.10;;;25.85;;
59167;SDS011;70412;55.048;73.268;2023-11-21T01:48:35;100.20;;;29.17;;
59167;SDS011;70412;55.048;73.268;2023-11-21T01:51:37;90.68;;;28.58;;
59167;SDS011;70412;55.048;73.268;2023-11-21T01:54:40;90.60;;;27.92;;
59167;SDS011;70412;55.048;73.268;2023-11-21T01:57:43;89.93;;;26.98;;
59167;SDS011;70412;55.048;73.268;2023-11-21T02:00:47;104.75;;;28.27;;
59167;SDS011;70412;55.048;73.268;2023-11-21T02:03:52;78.10;;;25.98;;
59167;SDS011;70412;55.048;73.268;2023-11-21T02:06:56;85.63;;;27.55;;
59167;SDS011;70412;55.048;73.268;2023-11-21T02:09:59;102.32;;;29.08;;
59167;SDS011;70412;55.048;73.268;2023-11-21T02:13:01;102.15;;;30.50;;
59167;SDS011;70412;55.048;73.268;2023-11-21T02:16:04;110.15;;;29.45;;
59167;SDS011;70412;55.048;73.268;2023-11-21T02:19:07;78.85;;;25.42;;
59167;SDS011;70412;55.048;73.268;2023-11-21T02:22:12;80.70;;;27.70;;
59167;SDS011;70412;55.048;73.268;2023-11-21T02:25:17;74.18;;;23.25;;
59167;SDS011;70412;55.048;73.268;2023-11-21T02:28:20;63.45;;;21.50;;
59167;SDS011;70412;55.048;73.268;2023-11-21T02:31:27;71.35;;;21.63;;
59167;SDS011;70412;55.048;73.268;2023-11-21T02:34:30;58.22;;;19.77;;
59167;SDS011;70412;55.048;73.268;2023-11-21T02:37:32;58.30;;;19.15;;
59167;SDS011;70412;55.048;73.268;2023-11-21T02:40:35;65.40;;;21.52;;
59167;SDS011;70412;55.048;73.268;2023-11-21T02:43:37;49.42;;;17.35;;
59167;SDS011;70412;55.048;73.268;2023-11-21T02:46:40;64.15;;;18.00;;
59167;SDS011;70412;55.048;73.268;2023-11-21T02:49:44;54.47;;;17.73;;
59167;SDS011;70412;55.048;73.268;2023-11-21T02:52:49;37.78;;;14.57;;
59167;SDS011;70412;55.048;73.268;2023-11-21T02:55:52;49.80;;;17.00;;
59167;SDS011;70412;55.048;73.268;2023-11-21T02:58:55;57.90;;;18.98;;
59167;SDS011;70412;55.048;73.268;2023-11-21T03:01:59;62.40;;;19.40;;
59167;SDS011;70412;55.048;73.268;2023-11-21T03:05:01;54.60;;;18.65;;
59167;SDS011;70412;55.048;73.268;2023-11-21T03:08:03;47.10;;;16.70;;
59167;SDS011;70412;55.048;73.268;2023-11-21T03:11:06;45.78;;;15.90;;
59167;SDS011;70412;55.048;73.268;2023-11-21T03:14:09;47.50;;;15.00;;
59167;SDS011;70412;55.048;73.268;2023-11-21T03:17:12;37.10;;;13.82;;
59167;SDS011;70412;55.048;73.268;2023-11-21T03:20:16;48.00;;;15.90;;
59167;SDS011;70412;55.048;73.268;2023-11-21T03:23:18;48.65;;;16.80;;
59167;SDS011;70412;55.048;73.268;2023-11-21T03:26:21;33.15;;;13.88;;
59167;SDS011;70412;55.048;73.268;2023-11-21T03:29:23;45.47;;;13.77;;
59167;SDS011;70412;55.048;73.268;2023-11-21T03:32:25;27.55;;;10.27;;
59167;SDS011;70412;55.048;73.268;2023-11-21T03:35:27;38.40;;;12.15;;
59167;SDS011;70412;55.048;73.268;2023-11-21T03:38:30;31.40;;;12.13;;
59167;SDS011;70412;55.048;73.268;2023-11-21T03:41:32;33.53;;;12.50;;
59167;SDS011;70412;55.048;73.268;2023-11-21T03:44:35;35.88;;;12.05;;
59167;SDS011;70412;55.048;73.268;2023-11-21T03:47:37;32.72;;;11.90;;
59167;SDS011;70412;55.048;73.268;2023-11-21T03:50:42;42.70;;;12.70;;
59167;SDS011;70412;55.048;73.268;2023-11-21T03:53:46;29.85;;;10.18;;
59167;SDS011;70412;55.048;73.268;2023-11-21T03:56:49;43.78;;;14.38;;
59167;SDS011;70412;55.048;73.268;2023-11-21T03:59:51;34.20;;;12.80;;
59167;SDS011;70412;55.048;73.268;2023-11-21T04:02:53;45.88;;;14.35;;
59167;SDS011;70412;55.048;73.268;2023-11-21T04:05:56;32.97;;;12.88;;
59167;SDS011;70412;55.048;73.268;2023-11-21T04:08:58;45.10;;;13.30;;
59167;SDS011;70412;55.048;73.268;2023-11-21T04:12:01;47.50;;;14.50;;
59167;SDS011;70412;55.048;73.268;2023-11-21T04:15:04;39.63;;;12.25;;
59167;SDS011;70412;55.048;73.268;2023-11-21T04:18:07;59.38;;;17.95;;
59167;SDS011;70412;55.048;73.268;2023-11-21T04:21:10;57.23;;;16.73;;
59167;SDS011;70412;55.048;73.268;2023-11-21T04:24:12;51.42;;;16.10;;
59167;SDS011;70412;55.048;73.268;2023-11-21T04:27:14;56.50;;;17.90;;
59167;SDS011;70412;55.048;73.268;2023-11-21T04:30:18;61.22;;;17.63;;
59167;SDS011;70412;55.048;73.268;2023-11-21T04:33:20;53.53;;;16.88;;
59167;SDS011;70412;55.048;73.268;2023-11-21T04:36:24;61.53;;;17.92;;
59167;SDS011;70412;55.048;73.268;2023-11-21T04:39:26;62.13;;;16.73;;
59167;SDS011;70412;55.048;73.268;2023-11-21T04:42:29;56.90;;;18.85;;
59167;SDS011;70412;55.048;73.268;2023-11-21T04:45:31;56.17;;;19.30;;
59167;SDS011;70412;55.048;73.268;2023-11-21T04:48:34;57.00;;;19.55;;
59167;SDS011;70412;55.048;73.268;2023-11-21T04:51:36;63.55;;;20.38;;
59167;SDS011;70412;55.048;73.268;2023-11-21T04:54:38;63.83;;;20.25;;
59167;SDS011;70412;55.048;73.268;2023-11-21T04:57:41;59.55;;;18.98;;
59167;SDS011;70412;55.048;73.268;2023-11-21T05:00:43;57.08;;;19.77;;
59167;SDS011;70412;55.048;73.268;2023-11-21T05:03:46;65.40;;;19.98;;
59167;SDS011;70412;55.048;73.268;2023-11-21T05:06:49;65.75;;;20.48;;
59167;SDS011;70412;55.048;73.268;2023-11-21T05:09:51;61.85;;;19.85;;
59167;SDS011;70412;55.048;73.268;2023-11-21T05:12:53;64.50;;;22.02;;
59167;SDS011;70412;55.048;73.268;2023-11-21T05:16:09;69.18;;;22.20;;
59167;SDS011;70412;55.048;73.268;2023-11-21T05:19:11;68.03;;;21.75;;
59167;SDS011;70412;55.048;73.268;2023-11-21T05:22:14;63.53;;;21.90;;
59167;SDS011;70412;55.048;73.268;2023-11-21T05:25:17;70.85;;;21.38;;
59167;SDS011;70412;55.048;73.268;2023-11-21T05:28:22;69.45;;;21.23;;
59167;SDS011;70412;55.048;73.268;2023-11-21T05:31:25;71.88;;;20.50;;
59167;SDS011;70412;55.048;73.268;2023-11-21T05:34:28;42.50;;;14.98;;
59167;SDS011;70412;55.048;73.268;2023-11-21T05:37:30;71.30;;;23.00;;
59167;SDS011;70412;55.048;73.268;2023-11-21T05:40:33;59.08;;;19.30;;
59167;SDS011;70412;55.048;73.268;2023-11-21T05:43:35;56.33;;;20.20;;
59167;SDS011;70412;55.048;73.268;2023-11-21T05:46:37;67.60;;;20.10;;
59167;SDS011;70412;55.048;73.268;2023-11-21T05:49:40;66.03;;;21.25;;
59167;SDS011;70412;55.048;73.268;2023-11-21T05:52:42;64.30;;;19.63;;
59167;SDS011;70412;55.048;73.268;2023-11-21T05:55:46;72.32;;;22.10;;
59167;SDS011;70412;55.048;73.268;2023-11-21T05:58:49;76.15;;;21.13;;
59167;SDS011;70412;55.048;73.268;2023-11-21T06:01:52;71.65;;;22.85;;
59167;SDS011;70412;55.048;73.268;2023-11-21T06:04:55;59.00;;;18.92;;
59167;SDS011;70412;55.048;73.268;2023-11-21T06:07:57;49.80;;;16.00;;
59167;SDS011;70412;55.048;73.268;2023-11-21T06:11:03;52.13;;;16.17;;
59167;SDS011;70412;55.048;73.268;2023-11-21T06:14:05;39.78;;;14.35;;
59167;SDS011;70412;55.048;73.268;2023-11-21T06:17:09;39.15;;;13.98;;
59167;SDS011;70412;55.048;73.268;2023-11-21T06:20:11;35.85;;;14.30;;
59167;SDS011;70412;55.048;73.268;2023-11-21T06:23:15;36.35;;;13.10;;
59167;SDS011;70412;55.048;73.268;2023-11-21T06:26:17;28.92;;;12.05;;
59167;SDS011;70412;55.048;73.268;2023-11-21T06:29:20;33.25;;;11.23;;
59167;SDS011;70412;55.048;73.268;2023-11-21T06:32:23;40.00;;;14.67;;
59167;SDS011;70412;55.048;73.268;2023-11-21T06:35:25;32.95;;;13.40;;
59167;SDS011;70412;55.048;73.268;2023-11-21T06:38:31;40.43;;;14.77;;
59167;SDS011;70412;55.048;73.268;2023-11-21T06:41:33;34.03;;;13.05;;
59167;SDS011;70412;55.048;73.268;2023-11-21T06:44:39;35.50;;;12.37;;
59167;SDS011;70412;55.048;73.268;2023-11-21T06:47:42;41.17;;;12.32;;
59167;SDS011;70412;55.048;73.268;2023-11-21T06:50:45;27.38;;;11.27;;
59167;SDS011;70412;55.048;73.268;2023-11-21T06:53:48;33.10;;;13.93;;
59167;SDS011;70412;55.048;73.268;2023-11-21T06:56:53;40.88;;;13.13;;
59167;SDS011;70412;55.048;73.268;2023-11-21T06:59:57;26.85;;;10.90;;
59167;SDS011;70412;55.048;73.268;2023-11-21T07:03:00;31.33;;;13.10;;
59167;SDS011;70412;55.048;73.268;2023-11-21T07:06:02;25.60;;;10.82;;
59167;SDS011;70412;55.048;73.268;2023-11-21T07:09:05;36.35;;;13.02;;
59167;SDS011;70412;55.048;73.268;2023-11-21T07:12:10;28.45;;;11.38;;
59167;SDS011;70412;55.048;73.268;2023-11-21T07:15:12;27.15;;;10.75;;
59167;SDS011;70412;55.048;73.268;2023-11-21T07:18:15;23.20;;;9.82;;
59167;SDS011;70412;55.048;73.268;2023-11-21T07:21:17;24.73;;;9.55;;
59167;SDS011;70412;55.048;73.268;2023-11-21T07:24:19;19.40;;;8.43;;
59167;SDS011;70412;55.048;73.268;2023-11-21T07:27:22;28.80;;;10.13;;
59167;SDS011;70412;55.048;73.268;2023-11-21T07:30:25;29.90;;;11.13;;
59167;SDS011;70412;55.048;73.268;2023-11-21T07:33:27;24.35;;;8.88;;
59167;SDS011;70412;55.048;73.268;2023-11-21T07:36:29;22.88;;;9.73;;
59167;SDS011;70412;55.048;73.268;2023-11-21T07:39:32;18.70;;;7.82;;
59167;SDS011;70412;55.048;73.268;2023-11-21T07:42:36;23.30;;;9.67;;
59167;SDS011;70412;55.048;73.268;2023-11-21T07:45:39;24.85;;;8.25;;
59167;SDS011;70412;55.048;73.268;2023-11-21T07:48:42;22.92;;;8.80;;
59167;SDS011;70412;55.048;73.268;2023-11-21T07:51:44;17.02;;;8.15;;
59167;SDS011;70412;55.048;73.268;2023-11-21T07:54:47;13.93;;;6.05;;
59167;SDS011;70412;55.048;73.268;2023-11-21T07:57:49;19.73;;;8.93;;
59167;SDS011;70412;55.048;73.268;2023-11-21T08:00:51;23.75;;;10.07;;
59167;SDS011;70412;55.048;73.268;2023-11-21T08:03:54;24.97;;;10.37;;
59167;SDS011;70412;55.048;73.268;2023-11-21T08:06:58;18.30;;;8.73;;
59167;SDS011;70412;55.048;73.268;2023-11-21T08:10:01;26.60;;;9.05;;
59167;SDS011;70412;55.048;73.268;2023-11-21T08:13:03;26.35;;;10.50;;
59167;SDS011;70412;55.048;73.268;2023-11-21T08:16:06;22.58;;;9.25;;
59167;SDS011;70412;55.048;73.268;2023-11-21T08:19:11;24.45;;;10.40;;
59167;SDS011;70412;55.048;73.268;2023-11-21T08:22:16;24.30;;;10.63;;
59167;SDS011;70412;55.048;73.268;2023-11-21T08:25:19;23.48;;;9.63;;
59167;SDS011;70412;55.048;73.268;2023-11-21T08:28:22;22.67;;;10.00;;
59167;SDS011;70412;55.048;73.268;2023-11-21T08:31:26;17.80;;;8.60;;
59167;SDS011;70412;55.048;73.268;2023-11-21T08:34:28;27.63;;;9.43;;
59167;SDS011;70412;55.048;73.268;2023-11-21T08:37:30;18.73;;;7.55;;
59167;SDS011;70412;55.048;73.268;2023-11-21T08:40:34;24.92;;;9.93;;
59167;SDS011;70412;55.048;73.268;2023-11-21T08:43:37;25.93;;;9.47;;
59167;SDS011;70412;55.048;73.268;2023-11-21T08:46:41;28.48;;;11.15;;
59167;SDS011;70412;55.048;73.268;2023-11-21T08:49:45;30.55;;;11.23;;
59167;SDS011;70412;55.048;73.268;2023-11-21T08:52:48;23.05;;;9.27;;
59167;SDS011;70412;55.048;73.268;2023-11-21T08:55:50;25.77;;;9.18;;
59167;SDS011;70412;55.048;73.268;2023-11-21T08:58:53;22.67;;;9.90;;
59167;SDS011;70412;55.048;73.268;2023-11-21T09:01:55;25.00;;;10.45;;
59167;SDS011;70412;55.048;73.268;2023-11-21T09:05:00;17.33;;;8.10;;
59167;SDS011;70412;55.048;73.268;2023-11-21T09:08:05;24.40;;;9.98;;
59167;SDS011;70412;55.048;73.268;2023-11-21T09:11:08;17.48;;;7.47;;
59167;SDS011;70412;55.048;73.268;2023-11-21T09:14:10;19.45;;;8.35;;
59167;SDS011;70412;55.048;73.268;2023-11-21T09:17:15;21.05;;;8.13;;
59167;SDS011;70412;55.048;73.268;2023-11-21T09:20:17;20.08;;;7.60;;
59167;SDS011;70412;55.048;73.268;2023-11-21T09:23:20;27.17;;;11.35;;
59167;SDS011;70412;55.048;73.268;2023-11-21T09:26:22;23.25;;;11.85;;
59167;SDS011;70412;55.048;73.268;2023-11-21T09:29:24;27.05;;;10.68;;
59167;SDS011;70412;55.048;73.268;2023-11-21T09:32:30;13.85;;;6.45;;
59167;SDS011;70412;55.048;73.268;2023-11-21T09:35:33;28.48;;;9.50;;
59167;SDS011;70412;55.048;73.268;2023-11-21T09:38:35;23.00;;;9.73;;
59167;SDS011;70412;55.048;73.268;2023-11-21T09:41:42;27.38;;;10.93;;
59167;SDS011;70412;55.048;73.268;2023-11-21T09:45:03;25.05;;;10.18;;
59167;SDS011;70412;55.048;73.268;2023-11-21T09:51:19;25.70;;;10.13;;
59167;SDS011;70412;55.048;73.268;2023-11-21T09:54:24;17.30;;;8.13;;
59167;SDS011;70412;55.048;73.268;2023-11-21T09:57:28;19.00;;;7.47;;
59167;SDS011;70412;55.048;73.268;2023-11-21T10:00:30;16.27;;;7.78;;
59167;SDS011;70412;55.048;73.268;2023-11-21T10:03:35;23.90;;;9.18;;
59167;SDS011;70412;55.048;73.268;2023-11-21T10:06:40;24.23;;;10.60;;
59167;SDS011;70412;55.048;73.268;2023-11-21T10:09:43;20.17;;;8.68;;
59167;SDS011;70412;55.048;73.268;2023-11-21T10:12:49;23.70;;;9.48;;
59167;SDS011;70412;55.048;73.268;2023-11-21T10:15:55;15.90;;;8.43;;
59167;SDS011;70412;55.048;73.268;2023-11-21T10:18:57;27.92;;;9.25;;
59167;SDS011;70412;55.048;73.268;2023-11-21T10:22:01;19.88;;;7.70;;
59167;SDS011;70412;55.048;73.268;2023-11-21T10:25:05;27.63;;;9.25;;
59167;SDS011;70412;55.048;73.268;2023-11-21T10:28:09;20.17;;;8.00;;
59167;SDS011;70412;55.048;73.268;2023-11-21T10:31:11;26.17;;;9.20;;
59167;SDS011;70412;55.048;73.268;2023-11-21T10:34:14;15.00;;;6.75;;
59167;SDS011;70412;55.048;73.268;2023-11-21T10:37:18;19.88;;;8.75;;
59167;SDS011;70412;55.048;73.268;2023-11-21T10:40:21;13.60;;;5.82;;
59167;SDS011;70412;55.048;73.268;2023-11-21T10:43:27;19.40;;;6.85;;
59167;SDS011;70412;55.048;73.268;2023-11-21T10:46:30;16.43;;;6.50;;
59167;SDS011;70412;55.048;73.268;2023-11-21T10:49:32;19.17;;;7.15;;
59167;SDS011;70412;55.048;73.268;2023-11-21T10:52:34;17.08;;;7.25;;
59167;SDS011;70412;55.048;73.268;2023-11-21T10:55:37;21.45;;;7.50;;
59167;SDS011;70412;55.048;73.268;2023-11-21T10:58:40;16.08;;;7.00;;
59167;SDS011;70412;55.048;73.268;2023-11-21T11:01:46;21.98;;;8.82;;
59167;SDS011;70412;55.048;73.268;2023-11-21T11:04:51;22.17;;;8.35;;
59167;SDS011;70412;55.048;73.268;2023-11-21T11:11:11;21.67;;;9.40;;
59167;SDS011;70412;55.048;73.268;2023-11-21T11:14:15;17.27;;;7.47;;
59167;SDS011;70412;55.048;73.268;2023-11-21T11:17:18;19.40;;;7.90;;
59167;SDS011;70412;55.048;73.268;2023-11-21T11:20:30;15.18;;;6.78;;
59167;SDS011;70412;55.048;73.268;2023-11-21T11:23:44;13.07;;;5.82;;
59167;SDS011;70412;55.048;73.268;2023-11-21T11:27:20;19.38;;;8.02;;
59167;SDS011;70412;55.048;73.268;2023-11-21T11:30:41;18.58;;;7.45;;
59167;SDS011;70412;55.048;73.268;2023-11-21T11:34:39;21.27;;;8.23;;
59167;SDS011;70412;55.048;73.268;2023-11-21T11:37:23;17.80;;;7.53;;
59167;SDS011;70412;55.048;73.268;2023-11-21T11:40:38;16.65;;;7.35;;
59167;SDS011;70412;55.048;73.268;2023-11-21T11:43:42;22.27;;;7.65;;
59167;SDS011;70412;55.048;73.268;2023-11-21T11:46:45;25.92;;;10.35;;
59167;SDS011;70412;55.048;73.268;2023-11-21T11:53:12;20.48;;;8.00;;
59167;SDS011;70412;55.048;73.268;2023-11-21T11:59:29;21.02;;;8.57;;
59167;SDS011;70412;55.048;73.268;2023-11-21T12:02:31;19.10;;;8.07;;
59167;SDS011;70412;55.048;73.268;2023-11-21T12:05:35;24.65;;;8.48;;
59167;SDS011;70412;55.048;73.268;2023-11-21T12:08:41;26.80;;;9.80;;
59167;SDS011;70412;55.048;73.268;2023-11-21T12:11:43;23.10;;;10.88;;
59167;SDS011;70412;55.048;73.268;2023-11-21T12:14:48;24.35;;;9.80;;
59167;SDS011;70412;55.048;73.268;2023-11-21T12:17:51;21.38;;;8.80;;
59167;SDS011;70412;55.048;73.268;2023-11-21T12:20:54;20.25;;;9.98;;
59167;SDS011;70412;55.048;73.268;2023-11-21T12:23:57;15.70;;;6.82;;
59167;SDS011;70412;55.048;73.268;2023-11-21T12:27:00;18.20;;;7.63;;
59167;SDS011;70412;55.048;73.268;2023-11-21T12:30:02;20.20;;;7.32;;
59167;SDS011;70412;55.048;73.268;2023-11-21T12:33:06;13.20;;;6.43;;
59167;SDS011;70412;55.048;73.268;2023-11-21T12:36:10;15.52;;;7.68;;
59167;SDS011;70412;55.048;73.268;2023-11-21T12:39:14;12.57;;;5.22;;
59167;SDS011;70412;55.048;73.268;2023-11-21T12:42:16;13.38;;;5.90;;
59167;SDS011;70412;55.048;73.268;2023-11-21T12:45:23;12.73;;;5.63;;
59167;SDS011;70412;55.048;73.268;2023-11-21T12:48:28;16.55;;;5.72;;
59167;SDS011;70412;55.048;73.268;2023-11-21T12:51:31;13.80;;;5.95;;
59167;SDS011;70412;55.048;73.268;2023-11-21T12:54:35;12.25;;;5.70;;
59167;SDS011;70412;55.048;73.268;2023-11-21T12:57:37;14.98;;;5.90;;
59167;SDS011;70412;55.048;73.268;2023-11-21T13:00:58;10.32;;;5.32;;
59167;SDS011;70412;55.048;73.268;2023-11-21T13:04:14;17.42;;;7.45;;
59167;SDS011;70412;55.048;73.268;2023-11-21T13:07:16;14.85;;;7.47;;
59167;SDS011;70412;55.048;73.268;2023-11-21T13:10:24;15.52;;;4.93;;
59167;SDS011;70412;55.048;73.268;2023-11-21T13:13:32;10.20;;;5.15;;
59167;SDS011;70412;55.048;73.268;2023-11-21T13:16:47;14.73;;;5.88;;
59167;SDS011;70412;55.048;73.268;2023-11-21T13:19:50;13.55;;;5.55;;
59167;SDS011;70412;55.048;73.268;2023-11-21T13:22:56;12.10;;;5.25;;
59167;SDS011;70412;55.048;73.268;2023-11-21T13:26:00;17.02;;;7.43;;
59167;SDS011;70412;55.048;73.268;2023-11-21T13:29:05;15.88;;;6.75;;
59167;SDS011;70412;55.048;73.268;2023-11-21T13:32:10;17.60;;;6.43;;
59167;SDS011;70412;55.048;73.268;2023-11-21T13:35:30;14.53;;;5.90;;
59167;SDS011;70412;55.048;73.268;2023-11-21T13:38:51;16.20;;;6.57;;
59167;SDS011;70412;55.048;73.268;2023-11-21T13:42:11;13.88;;;5.47;;
59167;SDS011;70412;55.048;73.268;2023-11-21T13:45:14;10.93;;;5.63;;
59167;SDS011;70412;55.048;73.268;2023-11-21T13:48:18;13.77;;;5.32;;
59167;SDS011;70412;55.048;73.268;2023-11-21T13:51:27;9.77;;;4.85;;
59167;SDS011;70412;55.048;73.268;2023-11-21T13:54:39;19.17;;;6.43;;
59167;SDS011;70412;55.048;73.268;2023-11-21T13:57:41;9.65;;;4.60;;
59167;SDS011;70412;55.048;73.268;2023-11-21T14:00:51;14.82;;;5.72;;
59167;SDS011;70412;55.048;73.268;2023-11-21T14:03:59;17.75;;;5.18;;
59167;SDS011;70412;55.048;73.268;2023-11-21T14:07:18;14.48;;;4.95;;
59167;SDS011;70412;55.048;73.268;2023-11-21T14:10:40;12.05;;;4.82;;
59167;SDS011;70412;55.048;73.268;2023-11-21T14:13:44;11.48;;;4.97;;
59167;SDS011;70412;55.048;73.268;2023-11-21T14:16:50;14.55;;;5.60;;
59167;SDS011;70412;55.048;73.268;2023-11-21T14:19:53;6.40;;;3.63;;
59167;SDS011;70412;55.048;73.268;2023-11-21T14:22:57;16.35;;;5.95;;
59167;SDS011;70412;55.048;73.268;2023-11-21T14:25:59;10.23;;;4.57;;
59167;SDS011;70412;55.048;73.268;2023-11-21T14:29:02;12.13;;;6.65;;
59167;SDS011;70412;55.048;73.268;2023-11-21T14:32:06;15.60;;;4.88;;
59167;SDS011;70412;55.048;73.268;2023-11-21T14:35:09;12.93;;;5.45;;
59167;SDS011;70412;55.048;73.268;2023-11-21T14:38:11;10.88;;;4.93;;
59167;SDS011;70412;55.048;73.268;2023-11-21T14:41:15;13.95;;;5.57;;
59167;SDS011;70412;55.048;73.268;2023-11-21T14:44:18;12.57;;;4.63;;
59167;SDS011;70412;55.048;73.268;2023-11-21T14:47:22;8.88;;;4.45;;
59167;SDS011;70412;55.048;73.268;2023-11-21T14:50:28;17.08;;;4.70;;
59167;SDS011;70412;55.048;73.268;2023-11-21T14:53:42;11.57;;;5.35;;
59167;SDS011;70412;55.048;73.268;2023-11-21T14:56:56;17.50;;;5.60;;
59167;SDS011;70412;55.048;73.268;2023-11-21T14:59:58;15.80;;;6.80;;
59167;SDS011;70412;55.048;73.268;2023-11-21T15:03:03;13.25;;;5.22;;
59167;SDS011;70412;55.048;73.268;2023-11-21T15:06:06;16.60;;;6.82;;
59167;SDS011;70412;55.048;73.268;2023-11-21T15:09:27;24.00;;;6.60;;
59167;SDS011;70412;55.048;73.268;2023-11-21T15:12:37;19.27;;;7.13;;
59167;SDS011;70412;55.048;73.268;2023-11-21T15:15:41;15.85;;;5.60;;
59167;SDS011;70412;55.048;73.268;2023-11-21T15:18:44;14.57;;;6.25;;
59167;SDS011;70412;55.048;73.268;2023-11-21T15:21:46;9.57;;;5.13;;
59167;SDS011;70412;55.048;73.268;2023-11-21T15:24:49;9.65;;;4.80;;
59167;SDS011;70412;55.048;73.268;2023-11-21T15:27:52;8.85;;;4.85;;
59167;SDS011;70412;55.048;73.268;2023-11-21T15:30:55;12.48;;;5.35;;
59167;SDS011;70412;55.048;73.268;2023-11-21T15:33:59;12.02;;;5.10;;
59167;SDS011;70412;55.048;73.268;2023-11-21T15:37:01;7.57;;;4.00;;
59167;SDS011;70412;55.048;73.268;2023-11-21T15:40:05;9.20;;;4.15;;
59167;SDS011;70412;55.048;73.268;2023-11-21T15:43:12;14.43;;;5.50;;
59167;SDS011;70412;55.048;73.268;2023-11-21T15:46:14;21.30;;;6.55;;
59167;SDS011;70412;55.048;73.268;2023-11-21T15:49:17;19.83;;;6.07;;
59167;SDS011;70412;55.048;73.268;2023-11-21T15:52:23;15.52;;;6.03;;
59167;SDS011;70412;55.048;73.268;2023-11-21T15:55:25;22.58;;;6.03;;
59167;SDS011;70412;55.048;73.268;2023-11-21T15:58:28;16.73;;;6.20;;
59167;SDS011;70412;55.048;73.268;2023-11-21T16:01:31;7.00;;;2.97;;
59167;SDS011;70412;55.048;73.268;2023-11-21T16:04:33;11.07;;;3.15;;
59167;SDS011;70412;55.048;73.268;2023-11-21T16:07:38;10.93;;;4.20;;
59167;SDS011;70412;55.048;73.268;2023-11-21T16:10:40;10.02;;;3.88;;
59167;SDS011;70412;55.048;73.268;2023-11-21T16:13:42;12.02;;;4.47;;
59167;SDS011;70412;55.048;73.268;2023-11-21T16:16:47;9.05;;;3.38;;
59167;SDS011;70412;55.048;73.268;2023-11-21T16:19:49;7.00;;;2.63;;
59167;SDS011;70412;55.048;73.268;2023-11-21T16:22:52;6.57;;;2.92;;
59167;SDS011;70412;55.048;73.268;2023-11-21T16:25:57;9.63;;;4.05;;
59167;SDS011;70412;55.048;73.268;2023-11-21T16:28:59;8.05;;;3.83;;
59167;SDS011;70412;55.048;73.268;2023-11-21T16:32:03;10.60;;;3.65;;
59167;SDS011;70412;55.048;73.268;2023-11-21T16:35:08;7.60;;;3.42;;
59167;SDS011;70412;55.048;73.268;2023-11-21T16:38:13;7.28;;;2.90;;
59167;SDS011;70412;55.048;73.268;2023-11-21T16:41:16;5.43;;;2.90;;
59167;SDS011;70412;55.048;73.268;2023-11-21T16:44:20;11.80;;;3.85;;
59167;SDS011;70412;55.048;73.268;2023-11-21T16:47:26;10.95;;;3.75;;
59167;SDS011;70412;55.048;73.268;2023-11-21T16:50:28;6.90;;;3.50;;
59167;SDS011;70412;55.048;73.268;2023-11-21T16:53:31;9.52;;;3.75;;
59167;SDS011;70412;55.048;73.268;2023-11-21T16:56:34;8.77;;;3.80;;
59167;SDS011;70412;55.048;73.268;2023-11-21T16:59:37;5.75;;;3.15;;
59167;SDS011;70412;55.048;73.268;2023-11-21T17:02:40;7.30;;;3.35;;
59167;SDS011;70412;55.048;73.268;2023-11-21T17:05:42;9.27;;;4.25;;
59167;SDS011;70412;55.048;73.268;2023-11-21T17:08:45;7.50;;;3.80;;
59167;SDS011;70412;55.048;73.268;2023-11-21T17:11:47;7.70;;;3.40;;
59167;SDS011;70412;55.048;73.268;2023-11-21T17:14:50;13.48;;;4.60;;
59167;SDS011;70412;55.048;73.268;2023-11-21T17:17:56;9.86;;;4.77;;
59167;SDS011;70412;55.048;73.268;2023-11-21T17:21:00;10.68;;;4.15;;
59167;SDS011;70412;55.048;73.268;2023-11-21T17:24:02;5.88;;;2.80;;
59167;SDS011;70412;55.048;73.268;2023-11-21T17:27:06;11.10;;;3.90;;
59167;SDS011;70412;55.048;73.268;2023-11-21T17:30:08;7.90;;;3.20;;
59167;SDS011;70412;55.048;73.268;2023-11-21T17:33:11;7.65;;;3.83;;
59167;SDS011;70412;55.048;73.268;2023-11-21T17:36:16;9.25;;;3.63;;
59167;SDS011;70412;55.048;73.268;2023-11-21T17:39:20;8.32;;;3.30;;
59167;SDS011;70412;55.048;73.268;2023-11-21T17:42:23;10.73;;;3.53;;
59167;SDS011;70412;55.048;73.268;2023-11-21T17:45:25;10.90;;;3.35;;
59167;SDS011;70412;55.048;73.268;2023-11-21T17:48:27;10.35;;;4.07;;
59167;SDS011;70412;55.048;73.268;2023-11-21T17:51:34;9.93;;;3.85;;
59167;SDS011;70412;55.048;73.268;2023-11-21T17:54:39;13.30;;;4.32;;
59167;SDS011;70412;55.048;73.268;2023-11-21T17:57:44;8.00;;;4.00;;
59167;SDS011;70412;55.048;73.268;2023-11-21T18:00:47;8.65;;;2.97;;
59167;SDS011;70412;55.048;73.268;2023-11-21T18:03:52;8.15;;;3.78;;
59167;SDS011;70412;55.048;73.268;2023-11-21T18:06:56;13.48;;;3.85;;